KOOA/OOA METAR and TAF weather

Enter ICAO airport designator
Station Type Date Time Source
KOOA METAR 2019/08/24 18:35 UTC NOAA

KOOA 241835Z AUTO 14009KT 10SM BKN050 23/14 A3017 RMK AO2 T02280136


Station Type Date Time Source
KOOA Decoded METAR 2019/08/24 18:35 UTC NOAA

Station name not available
Aug 24, 2019 - 02:35 PM EDT / 2019.08.24 1835 UTC
Wind: from the SE (140 degrees) at 10 MPH (9 KT):0
Visibility: 10 mile(s):0
Sky conditions: mostly cloudy
Temperature: 73.0 F (22.8 C)
Dew Point: 56.5 F (13.6 C)
Relative Humidity: 56%
Pressure (altimeter): 30.17 in. Hg (1021 hPa)
ob: KOOA 241835Z AUTO 14009KT 10SM BKN050 23/14 A3017 RMK AO2 T02280136
cycle: 18

Station Type Date Time Source
KOOA TAF UTC NOAA

Error!

Example: see airport list